Pieter Caland — PBTB — position and weather

sailwx.info

Track history (hours):
 
Tides and Currents Weather Stations Pressure Air Temp Water Temp Dewpoint Dewpoint Depression Visibility Wind Speed Wind Dir Waves Ship Positions

Pieter Caland

Last reported at 2016-Dec-04 23:33 UTC. Time now 2016-Dec-05 00:26 UTC.
Position S 23°04' W 043°05'.

Length 96 m; draft 5.1 m.

Type: Other ship. MMSI: 244992000.

Date/timePositionNaut miles runAvg speedWind from/ knotsBaromVisibWave heightAir tempDewpointWater temp
2016-Dec-04 23:33S 23°04' W 043°05'8 8.2
2016-Dec-04 22:33S 22°57' W 043°08'5 5.3
2016-Dec-04 21:34S 22°52' W 043°12'0 0.0
2016-Dec-04 20:34S 22°52' W 043°12'0 0.0
2016-Dec-04 19:33S 22°52' W 043°12'3 3.5
2016-Dec-04 18:33S 22°55' W 043°09'9 8.7
2016-Dec-04 17:34S 23°03' W 043°06'2 1.9
2016-Dec-04 16:33S 23°04' W 043°05'9 8.6
2016-Dec-04 15:34S 22°57' W 043°08'5 5.4
2016-Dec-04 14:34S 22°52' W 043°12'0 0.0
2016-Dec-04 13:33S 22°52' W 043°12'0 0.4
2016-Dec-04 12:34S 22°53' W 043°12'1 0.7
2016-Dec-04 11:29S 22°53' W 043°11'0 0.0
2016-Dec-04 10:29S 22°53' W 043°11'4 4.5
2016-Dec-04 09:33S 22°56' W 043°08'8 8.3
2016-Dec-04 08:33S 23°04' W 043°06'2 1.6
2016-Dec-04 07:33S 23°03' W 043°06'7 7.3
2016-Dec-04 06:33S 22°56' W 043°09'5 4.5
2016-Dec-04 05:33S 22°52' W 043°12'0 0.0
2016-Dec-04 04:33S 22°52' W 043°12'0 0.0
2016-Dec-04 03:33S 22°52' W 043°12'4 3.9
2016-Dec-04 02:33S 22°55' W 043°09'8 8.0
2016-Dec-04 01:33S 23°03' W 043°06'3 2.6
2016-Dec-04 00:33S 23°05' W 043°05'8 7.9
2016-Dec-03 23:33S 22°58' W 043°08'7 6.6
2016-Dec-03 22:33S 22°52' W 043°12'0 0.0
2016-Dec-03 21:33S 22°52' W 043°12'1 0.6
2016-Dec-03 20:33S 22°53' W 043°12'8 8.2
2016-Dec-03 19:33S 23°00' W 043°08'7 7.4
2016-Dec-03 18:34S 23°07' W 043°04'7 7.0
2016-Dec-03 17:33S 23°00' W 043°07'7 6.6
2016-Dec-03 16:33S 22°54' W 043°10'3 2.9
2016-Dec-03 15:33S 22°52' W 043°12'0 0.0
2016-Dec-03 14:33S 22°52' W 043°12'1 1.1
2016-Dec-03 13:33S 22°53' W 043°11'8 7.6
2016-Dec-03 12:33S 22°60' W 043°07'8 7.5
2016-Dec-03 11:32S 23°07' W 043°04'8 7.6
2016-Dec-03 10:33S 22°60' W 043°07'8 8.3
2016-Dec-03 09:33S 22°53' W 043°12'1 0.5
2016-Dec-03 08:33S 22°52' W 043°12'0 0.0
2016-Dec-03 07:33S 22°52' W 043°12'0 0.2
2016-Dec-03 06:33S 22°52' W 043°12'0 0.0
2016-Dec-03 05:33S 22°52' W 043°12'4 4.2
2016-Dec-03 04:33S 22°55' W 043°09'9 8.9
2016-Dec-03 03:33S 23°04' W 043°05'0 0.4
2016-Dec-03 02:33S 23°04' W 043°05'8 8.1
2016-Dec-03 01:33S 22°57' W 043°08'5 5.3
2016-Dec-03 00:33S 22°52' W 043°12'0 0.0
2016-Dec-02 23:33S 22°52' W 043°12'2 1.9
2016-Dec-02 22:33S 22°53' W 043°10'8 7.6
2016-Dec-02 21:33S 23°00' W 043°07'7 7.1
2016-Dec-02 20:33S 23°07' W 043°04'6 6.2
2016-Dec-02 19:33S 23°01' W 043°06'7 7.1
2016-Dec-02 18:33S 22°54' W 043°09'3 2.9
2016-Dec-02 17:26S 22°52' W 043°12'0 0.0
2016-Dec-02 16:32S 22°52' W 043°12'0 0.0
2016-Dec-02 15:32S 22°52' W 043°12'0 0.0
2016-Dec-02 14:33S 22°52' W 043°12'0 0.3
2016-Dec-02 13:28S 22°53' W 043°12'1 0.7
2016-Dec-02 12:29S 22°53' W 043°11'0 0.0
2016-Dec-02 11:29S 22°53' W 043°11'0 0.0
2016-Dec-02 10:29S 22°53' W 043°11'0 0.0
2016-Dec-02 09:29S 22°53' W 043°11'0 0.0
2016-Dec-02 08:29S 22°53' W 043°11'0 0.1
2016-Dec-02 07:29S 22°53' W 043°11'0 0.0
2016-Dec-02 06:17S 22°53' W 043°11'0 0.0
2016-Dec-02 05:29S 22°53' W 043°11'1 0.7
2016-Dec-02 04:33S 22°53' W 043°11'9 8.7
2016-Dec-02 03:33S 23°01' W 043°06'6 6.1
2016-Dec-02 02:33S 23°07' W 043°04'8 7.7
2016-Dec-02 01:34S 22°60' W 043°07'8 7.8
2016-Dec-02 00:33S 22°53' W 043°11'0 0.4
2016-Dec-01 23:28S 22°53' W 043°12'0 0.0
2016-Dec-01 22:22S 22°53' W 043°12'0 0.0
2016-Dec-01 21:32S 22°53' W 043°12'1 0.7
2016-Dec-01 20:32S 22°53' W 043°11'0 0.0
2016-Dec-01 19:32S 22°53' W 043°11'0 0.1
2016-Dec-01 18:32S 22°53' W 043°11'7 7.0
2016-Dec-01 17:34S 22°59' W 043°08'8 8.3
2016-Dec-01 16:34S 23°06' W 043°04'5 5.1
2016-Dec-01 15:33S 23°02' W 043°06'7 7.4
2016-Dec-01 14:34S 22°55' W 043°09'3 3.3
2016-Dec-01 13:34S 22°53' W 043°12'0 0.0
2016-Dec-01 12:34S 22°53' W 043°12'0 0.0
2016-Dec-01 11:33S 22°53' W 043°12'0 0.0
2016-Dec-01 10:33S 22°53' W 043°12'0 0.3
2016-Dec-01 09:24S 22°53' W 043°12'3 4.1
2016-Dec-01 08:34S 22°55' W 043°09'8 7.5
2016-Dec-01 07:34S 23°02' W 043°06'3 2.7
2016-Dec-01 06:33S 23°05' W 043°05'7 7.5
2016-Dec-01 05:33S 22°58' W 043°08'6 6.3
2016-Dec-01 04:33S 22°53' W 043°12'0 0.0
2016-Dec-01 03:34S 22°53' W 043°12'0 0.0
2016-Dec-01 02:34S 22°53' W 043°12'5 4.7
2016-Dec-01 01:34S 22°56' W 043°09'8 7.9
2016-Dec-01 00:33S 23°04' W 043°05'2 2.1
2016-Nov-30 23:34S 23°05' W 043°04'8 7.7
2016-Nov-30 22:34S 22°58' W 043°08'7 6.9
2016-Nov-30 21:33S 22°53' W 043°12'0 0.0
2016-Nov-30 20:34S 22°53' W 043°12'0 0.0
2016-Nov-30 19:33S 22°53' W 043°12'0 0.0
2016-Nov-30 18:34S 22°53' W 043°12'0 0.0
2016-Nov-30 17:33S 22°53' W 043°12'7 7.4
2016-Nov-30 16:34S 22°59' W 043°07'8 8.3
2016-Nov-30 15:33S 23°06' W 043°04'5 5.3
2016-Nov-30 14:34S 23°01' W 043°06'8 7.5
2016-Nov-30 13:34S 22°54' W 043°09'3 3.3
2016-Nov-30 12:33S 22°52' W 043°12'0 0.0
2016-Nov-30 11:33S 22°52' W 043°12'0 0.0
2016-Nov-30 10:34S 22°52' W 043°12'1 0.7
2016-Nov-30 09:33S 22°53' W 043°11'6 6.2
2016-Nov-30 08:34S 22°58' W 043°08'8 8.3
2016-Nov-30 07:34S 23°06' W 043°04'4 4.3
2016-Nov-30 06:33S 23°02' W 043°06'7 7.3
2016-Nov-30 05:33S 22°55' W 043°09'4 3.9
2016-Nov-30 04:33S 22°52' W 043°12'0 0.0
2016-Nov-30 03:34S 22°52' W 043°12'0 0.0
2016-Nov-30 02:34S 22°52' W 043°12'0 0.0
2016-Nov-30 01:34S 22°52' W 043°12'0 0.0
2016-Nov-30 00:34S 22°52' W 043°12'0 0.0
2016-Nov-29 23:34S 22°52' W 043°12'4 4.3
2016-Nov-29 22:34S 22°55' W 043°09'8 8.3
2016-Nov-29 21:33S 23°03' W 043°05'1 0.9
2016-Nov-29 20:34S 23°04' W 043°05'8 8.1
2016-Nov-29 19:33S 22°56' W 043°08'5 5.4
2016-Nov-29 18:34S 22°52' W 043°12'0 0.0
2016-Nov-29 17:33S 22°52' W 043°12'0 0.0
2016-Nov-29 16:33S 22°52' W 043°12'2 2.3
2016-Nov-29 15:34S 22°53' W 043°10'9 9.3
2016-Nov-29 14:33S 23°02' W 043°06'4 3.7
2016-Nov-29 13:33S 23°05' W 043°05'8 8.0
2016-Nov-29 12:33S 22°58' W 043°08'7 7.0
2016-Nov-29 11:33S 22°52' W 043°12'0 0.1
2016-Nov-29 10:32S 22°52' W 043°12'0 0.0
2016-Nov-29 09:22S 22°52' W 043°12'3 3.0
2016-Nov-29 08:30S 22°54' W 043°10'7 7.5
2016-Nov-29 07:33S 23°00' W 043°07'6 6.4
2016-Nov-29 06:33S 23°06' W 043°04'8 8.0
2016-Nov-29 05:33S 22°59' W 043°07'8 7.1
2016-Nov-29 04:27S 22°52' W 043°12'0 0.1
2016-Nov-29 03:32S 22°52' W 043°12'0 0.0
2016-Nov-29 02:31S 22°52' W 043°12'7 6.7
2016-Nov-29 01:31S 22°58' W 043°08'8 8.1
2016-Nov-29 00:33S 23°05' W 043°04'3 2.8
2016-Nov-28 23:32S 23°02' W 043°06'8 8.4
2016-Nov-28 22:33S 22°55' W 043°09'4 3.5
2016-Nov-28 21:33S 22°52' W 043°12'0 0.0
2016-Nov-28 20:33S 22°52' W 043°12'0 0.0
2016-Nov-28 19:33S 22°52' W 043°12'0 0.0
2016-Nov-28 18:33S 22°52' W 043°12'2 1.8
2016-Nov-28 17:33S 22°53' W 043°10'8 8.3
2016-Nov-28 16:33S 23°01' W 043°07'5 5.4
2016-Nov-28 15:33S 23°06' W 043°04'8 7.7
2016-Nov-28 14:33S 22°59' W 043°07'7 6.5
2016-Nov-28 13:33S 22°53' W 043°11'1 1.2
2016-Nov-28 12:33S 22°52' W 043°12'0 0.0
2016-Nov-28 11:33S 22°52' W 043°12'0 0.0
2016-Nov-28 10:33S 22°52' W 043°12'5 4.5
2016-Nov-28 09:33S 22°56' W 043°09'7 7.3
2016-Nov-28 08:33S 23°03' W 043°06'2 2.2
2016-Nov-28 07:33S 23°05' W 043°05'8 8.4
2016-Nov-28 06:33S 22°57' W 043°08'6 5.6
2016-Nov-28 05:33S 22°52' W 043°12'0 0.0
2016-Nov-28 04:33S 22°52' W 043°12'0 0.4
2016-Nov-28 03:33S 22°53' W 043°12'0 0.0
2016-Nov-28 02:33S 22°53' W 043°12'1 0.7
2016-Nov-28 01:33S 22°53' W 043°12'8 8.0
2016-Nov-28 00:33S 22°60' W 043°07'8 7.9
2016-Nov-27 23:33S 23°07' W 043°04'5 4.8
2016-Nov-27 22:33S 23°03' W 043°06'8 7.9
2016-Nov-27 21:33S 22°55' W 043°09'4 4.0
2016-Nov-27 20:33S 22°52' W 043°12'0 0.0
2016-Nov-27 19:33S 22°52' W 043°12'0 0.0
2016-Nov-27 18:33S 22°52' W 043°12'0 0.2
2016-Nov-27 17:33S 22°52' W 043°12'0 0.5
2016-Nov-27 16:33S 22°53' W 043°13'0 0.0
2016-Nov-27 15:33S 22°53' W 043°13'0 0.0
2016-Nov-27 14:33S 22°53' W 043°13'2 1.5
2016-Nov-27 13:33S 22°53' W 043°11'0 0.0
2016-Nov-27 12:23S 22°53' W 043°11'0 0.0
2016-Nov-27 11:29S 22°53' W 043°11'0 0.0
2016-Nov-27 10:29S 22°53' W 043°11'0 0.0
2016-Nov-27 09:29S 22°53' W 043°11'0 0.0
2016-Nov-27 08:29S 22°53' W 043°11'3 3.6
2016-Nov-27 07:33S 22°55' W 043°09'8 7.6
2016-Nov-27 06:33S 23°03' W 043°06'2 2.3
2016-Nov-27 05:33S 23°05' W 043°05'8 8.3
2016-Nov-27 04:33S 22°57' W 043°08'6 5.7
2016-Nov-27 03:33S 22°53' W 043°13'0 0.0
2016-Nov-27 02:33S 22°53' W 043°13'0 0.0
2016-Nov-27 01:33S 22°53' W 043°13'0 0.0
2016-Nov-27 00:33S 22°53' W 043°13'0 0.0
2016-Nov-26 23:33S 22°53' W 043°13'0 0.0
2016-Nov-26 22:33S 22°53' W 043°12'0 0.0
2016-Nov-26 21:33S 22°53' W 043°12'0 0.0
2016-Nov-26 20:33S 22°53' W 043°12'0 0.0
2016-Nov-26 19:33S 22°53' W 043°13'0 0.0
2016-Nov-26 18:33S 22°53' W 043°13'0 0.0
2016-Nov-26 17:33S 22°53' W 043°13'0 0.2
2016-Nov-26 16:24S 22°53' W 043°13'0 0.3
2016-Nov-26 15:33S 22°53' W 043°13'0 0.2
2016-Nov-26 14:33S 22°53' W 043°13'0 0.1
2016-Nov-26 13:33S 22°53' W 043°13'0 0.0
2016-Nov-26 12:33S 22°53' W 043°13'1 1.4
2016-Nov-26 11:30S 22°53' W 043°11'0 0.0
2016-Nov-26 10:24S 22°53' W 043°11'0 0.0
2016-Nov-26 09:30S 22°53' W 043°11'0 0.0
2016-Nov-26 08:30S 22°53' W 043°11'0 0.0
2016-Nov-26 07:24S 22°53' W 043°11'0 0.0
2016-Nov-26 06:30S 22°53' W 043°11'0 0.0
2016-Nov-26 05:24S 22°53' W 043°11'0 0.0
2016-Nov-26 04:30S 22°53' W 043°11'0 0.0
2016-Nov-26 03:30S 22°53' W 043°11'0 0.0
2016-Nov-26 02:24S 22°53' W 043°11'0 0.0
2016-Nov-26 01:24S 22°53' W 043°11'0 0.0
2016-Nov-26 00:24S 22°53' W 043°11'0 0.0
2016-Nov-25 23:30S 22°53' W 043°11'0 0.0
2016-Nov-25 22:30S 22°53' W 043°11'0 0.0
2016-Nov-25 21:30S 22°53' W 043°11'0 0.0
2016-Nov-25 20:30S 22°53' W 043°11'0 0.0
2016-Nov-25 19:18S 22°53' W 043°11'0 0.0
2016-Nov-25 18:30S 22°53' W 043°11'0 0.0
2016-Nov-25 17:24S 22°53' W 043°11'0 0.0
2016-Nov-25 16:30S 22°53' W 043°11'0 0.0
2016-Nov-25 15:30S 22°53' W 043°11'0 0.0
2016-Nov-25 14:30S 22°53' W 043°11'0 0.0
2016-Nov-25 13:30S 22°53' W 043°11'0 0.0
2016-Nov-25 12:28S 22°53' W 043°11'0 0.0
2016-Nov-25 11:28S 22°53' W 043°11'0 0.0
2016-Nov-25 10:22S 22°53' W 043°11'0 0.0
2016-Nov-25 09:28S 22°53' W 043°11'0 0.0
2016-Nov-25 08:28S 22°53' W 043°11'0 0.0
2016-Nov-25 07:28S 22°53' W 043°11'0 0.0
2016-Nov-25 06:28S 22°53' W 043°11'0 0.0
2016-Nov-25 05:28S 22°53' W 043°11'0 0.0
2016-Nov-25 04:28S 22°53' W 043°11'0 0.0
2016-Nov-25 03:28S 22°53' W 043°11'0 0.1
2016-Nov-25 02:28S 22°53' W 043°11'0 0.0
2016-Nov-25 01:28S 22°53' W 043°11'0 0.0
2016-Nov-25 00:28S 22°53' W 043°11'  
Track history (hours):
 
Tides and Currents Weather Stations Pressure Air Temp Water Temp Dewpoint Dewpoint Depression Visibility Wind Speed Wind Dir Waves Ship Positions

Pieter Caland

Last reported at 2016-Dec-04 23:33 UTC. Time now 2016-Dec-05 00:26 UTC.
Position S 23°04' W 043°05'.

Length 96 m; draft 5.1 m.

Type: Other ship. MMSI: 244992000.

Date/timePositionNaut miles runAvg speedWind from/ knotsBaromVisibWave heightAir tempDewpointWater temp
2016-Dec-04 23:33S 23°04' W 043°05'8 8.2
2016-Dec-04 22:33S 22°57' W 043°08'5 5.3
2016-Dec-04 21:34S 22°52' W 043°12'0 0.0
2016-Dec-04 20:34S 22°52' W 043°12'0 0.0
2016-Dec-04 19:33S 22°52' W 043°12'3 3.5
2016-Dec-04 18:33S 22°55' W 043°09'9 8.7
2016-Dec-04 17:34S 23°03' W 043°06'2 1.9
2016-Dec-04 16:33S 23°04' W 043°05'9 8.6
2016-Dec-04 15:34S 22°57' W 043°08'5 5.4
2016-Dec-04 14:34S 22°52' W 043°12'0 0.0
2016-Dec-04 13:33S 22°52' W 043°12'0 0.4
2016-Dec-04 12:34S 22°53' W 043°12'1 0.7
2016-Dec-04 11:29S 22°53' W 043°11'0 0.0
2016-Dec-04 10:29S 22°53' W 043°11'4 4.5
2016-Dec-04 09:33S 22°56' W 043°08'8 8.3
2016-Dec-04 08:33S 23°04' W 043°06'2 1.6
2016-Dec-04 07:33S 23°03' W 043°06'7 7.3
2016-Dec-04 06:33S 22°56' W 043°09'5 4.5
2016-Dec-04 05:33S 22°52' W 043°12'0 0.0
2016-Dec-04 04:33S 22°52' W 043°12'0 0.0
2016-Dec-04 03:33S 22°52' W 043°12'4 3.9
2016-Dec-04 02:33S 22°55' W 043°09'8 8.0
2016-Dec-04 01:33S 23°03' W 043°06'3 2.6
2016-Dec-04 00:33S 23°05' W 043°05'8 7.9
2016-Dec-03 23:33S 22°58' W 043°08'7 6.6
2016-Dec-03 22:33S 22°52' W 043°12'0 0.0
2016-Dec-03 21:33S 22°52' W 043°12'1 0.6
2016-Dec-03 20:33S 22°53' W 043°12'8 8.2
2016-Dec-03 19:33S 23°00' W 043°08'7 7.4
2016-Dec-03 18:34S 23°07' W 043°04'7 7.0
2016-Dec-03 17:33S 23°00' W 043°07'7 6.6
2016-Dec-03 16:33S 22°54' W 043°10'3 2.9
2016-Dec-03 15:33S 22°52' W 043°12'0 0.0
2016-Dec-03 14:33S 22°52' W 043°12'1 1.1
2016-Dec-03 13:33S 22°53' W 043°11'8 7.6
2016-Dec-03 12:33S 22°60' W 043°07'8 7.5
2016-Dec-03 11:32S 23°07' W 043°04'8 7.6
2016-Dec-03 10:33S 22°60' W 043°07'8 8.3
2016-Dec-03 09:33S 22°53' W 043°12'1 0.5
2016-Dec-03 08:33S 22°52' W 043°12'0 0.0
2016-Dec-03 07:33S 22°52' W 043°12'0 0.2
2016-Dec-03 06:33S 22°52' W 043°12'0 0.0
2016-Dec-03 05:33S 22°52' W 043°12'4 4.2
2016-Dec-03 04:33S 22°55' W 043°09'9 8.9
2016-Dec-03 03:33S 23°04' W 043°05'0 0.4
2016-Dec-03 02:33S 23°04' W 043°05'8 8.1
2016-Dec-03 01:33S 22°57' W 043°08'5 5.3
2016-Dec-03 00:33S 22°52' W 043°12'0 0.0
2016-Dec-02 23:33S 22°52' W 043°12'2 1.9
2016-Dec-02 22:33S 22°53' W 043°10'8 7.6
2016-Dec-02 21:33S 23°00' W 043°07'7 7.1
2016-Dec-02 20:33S 23°07' W 043°04'6 6.2
2016-Dec-02 19:33S 23°01' W 043°06'7 7.1
2016-Dec-02 18:33S 22°54' W 043°09'3 2.9
2016-Dec-02 17:26S 22°52' W 043°12'0 0.0
2016-Dec-02 16:32S 22°52' W 043°12'0 0.0
2016-Dec-02 15:32S 22°52' W 043°12'0 0.0
2016-Dec-02 14:33S 22°52' W 043°12'0 0.3
2016-Dec-02 13:28S 22°53' W 043°12'1 0.7
2016-Dec-02 12:29S 22°53' W 043°11'0 0.0
2016-Dec-02 11:29S 22°53' W 043°11'0 0.0
2016-Dec-02 10:29S 22°53' W 043°11'0 0.0
2016-Dec-02 09:29S 22°53' W 043°11'0 0.0
2016-Dec-02 08:29S 22°53' W 043°11'0 0.1
2016-Dec-02 07:29S 22°53' W 043°11'0 0.0
2016-Dec-02 06:17S 22°53' W 043°11'0 0.0
2016-Dec-02 05:29S 22°53' W 043°11'1 0.7
2016-Dec-02 04:33S 22°53' W 043°11'9 8.7
2016-Dec-02 03:33S 23°01' W 043°06'6 6.1
2016-Dec-02 02:33S 23°07' W 043°04'8 7.7
2016-Dec-02 01:34S 22°60' W 043°07'8 7.8
2016-Dec-02 00:33S 22°53' W 043°11'0 0.4
2016-Dec-01 23:28S 22°53' W 043°12'0 0.0
2016-Dec-01 22:22S 22°53' W 043°12'0 0.0
2016-Dec-01 21:32S 22°53' W 043°12'1 0.7
2016-Dec-01 20:32S 22°53' W 043°11'0 0.0
2016-Dec-01 19:32S 22°53' W 043°11'0 0.1
2016-Dec-01 18:32S 22°53' W 043°11'7 7.0
2016-Dec-01 17:34S 22°59' W 043°08'8 8.3
2016-Dec-01 16:34S 23°06' W 043°04'5 5.1
2016-Dec-01 15:33S 23°02' W 043°06'7 7.4
2016-Dec-01 14:34S 22°55' W 043°09'3 3.3
2016-Dec-01 13:34S 22°53' W 043°12'0 0.0
2016-Dec-01 12:34S 22°53' W 043°12'0 0.0
2016-Dec-01 11:33S 22°53' W 043°12'0 0.0
2016-Dec-01 10:33S 22°53' W 043°12'0 0.3
2016-Dec-01 09:24S 22°53' W 043°12'3 4.1
2016-Dec-01 08:34S 22°55' W 043°09'8 7.5
2016-Dec-01 07:34S 23°02' W 043°06'3 2.7
2016-Dec-01 06:33S 23°05' W 043°05'7 7.5
2016-Dec-01 05:33S 22°58' W 043°08'6 6.3
2016-Dec-01 04:33S 22°53' W 043°12'0 0.0
2016-Dec-01 03:34S 22°53' W 043°12'0 0.0
2016-Dec-01 02:34S 22°53' W 043°12'5 4.7
2016-Dec-01 01:34S 22°56' W 043°09'8 7.9
2016-Dec-01 00:33S 23°04' W 043°05'2 2.1
2016-Nov-30 23:34S 23°05' W 043°04'8 7.7
2016-Nov-30 22:34S 22°58' W 043°08'7 6.9
2016-Nov-30 21:33S 22°53' W 043°12'0 0.0
2016-Nov-30 20:34S 22°53' W 043°12'0 0.0
2016-Nov-30 19:33S 22°53' W 043°12'0 0.0
2016-Nov-30 18:34S 22°53' W 043°12'0 0.0
2016-Nov-30 17:33S 22°53' W 043°12'7 7.4
2016-Nov-30 16:34S 22°59' W 043°07'8 8.3
2016-Nov-30 15:33S 23°06' W 043°04'5 5.3
2016-Nov-30 14:34S 23°01' W 043°06'8 7.5
2016-Nov-30 13:34S 22°54' W 043°09'3 3.3
2016-Nov-30 12:33S 22°52' W 043°12'0 0.0
2016-Nov-30 11:33S 22°52' W 043°12'0 0.0
2016-Nov-30 10:34S 22°52' W 043°12'1 0.7
2016-Nov-30 09:33S 22°53' W 043°11'6 6.2
2016-Nov-30 08:34S 22°58' W 043°08'8 8.3
2016-Nov-30 07:34S 23°06' W 043°04'4 4.3
2016-Nov-30 06:33S 23°02' W 043°06'7 7.3
2016-Nov-30 05:33S 22°55' W 043°09'4 3.9
2016-Nov-30 04:33S 22°52' W 043°12'0 0.0
2016-Nov-30 03:34S 22°52' W 043°12'0 0.0
2016-Nov-30 02:34S 22°52' W 043°12'0 0.0
2016-Nov-30 01:34S 22°52' W 043°12'0 0.0
2016-Nov-30 00:34S 22°52' W 043°12'0 0.0
2016-Nov-29 23:34S 22°52' W 043°12'4 4.3
2016-Nov-29 22:34S 22°55' W 043°09'8 8.3
2016-Nov-29 21:33S 23°03' W 043°05'1 0.9
2016-Nov-29 20:34S 23°04' W 043°05'8 8.1
2016-Nov-29 19:33S 22°56' W 043°08'5 5.4
2016-Nov-29 18:34S 22°52' W 043°12'0 0.0
2016-Nov-29 17:33S 22°52' W 043°12'0 0.0
2016-Nov-29 16:33S 22°52' W 043°12'2 2.3
2016-Nov-29 15:34S 22°53' W 043°10'9 9.3
2016-Nov-29 14:33S 23°02' W 043°06'4 3.7
2016-Nov-29 13:33S 23°05' W 043°05'8 8.0
2016-Nov-29 12:33S 22°58' W 043°08'7 7.0
2016-Nov-29 11:33S 22°52' W 043°12'0 0.1
2016-Nov-29 10:32S 22°52' W 043°12'0 0.0
2016-Nov-29 09:22S 22°52' W 043°12'3 3.0
2016-Nov-29 08:30S 22°54' W 043°10'7 7.5
2016-Nov-29 07:33S 23°00' W 043°07'6 6.4
2016-Nov-29 06:33S 23°06' W 043°04'8 8.0
2016-Nov-29 05:33S 22°59' W 043°07'8 7.1
2016-Nov-29 04:27S 22°52' W 043°12'0 0.1
2016-Nov-29 03:32S 22°52' W 043°12'0 0.0
2016-Nov-29 02:31S 22°52' W 043°12'7 6.7
2016-Nov-29 01:31S 22°58' W 043°08'8 8.1
2016-Nov-29 00:33S 23°05' W 043°04'3 2.8
2016-Nov-28 23:32S 23°02' W 043°06'8 8.4
2016-Nov-28 22:33S 22°55' W 043°09'4 3.5
2016-Nov-28 21:33S 22°52' W 043°12'0 0.0
2016-Nov-28 20:33S 22°52' W 043°12'0 0.0
2016-Nov-28 19:33S 22°52' W 043°12'0 0.0
2016-Nov-28 18:33S 22°52' W 043°12'2 1.8
2016-Nov-28 17:33S 22°53' W 043°10'8 8.3
2016-Nov-28 16:33S 23°01' W 043°07'5 5.4
2016-Nov-28 15:33S 23°06' W 043°04'8 7.7
2016-Nov-28 14:33S 22°59' W 043°07'7 6.5
2016-Nov-28 13:33S 22°53' W 043°11'1 1.2
2016-Nov-28 12:33S 22°52' W 043°12'0 0.0
2016-Nov-28 11:33S 22°52' W 043°12'0 0.0
2016-Nov-28 10:33S 22°52' W 043°12'5 4.5
2016-Nov-28 09:33S 22°56' W 043°09'7 7.3
2016-Nov-28 08:33S 23°03' W 043°06'2 2.2
2016-Nov-28 07:33S 23°05' W 043°05'8 8.4
2016-Nov-28 06:33S 22°57' W 043°08'6 5.6
2016-Nov-28 05:33S 22°52' W 043°12'0 0.0
2016-Nov-28 04:33S 22°52' W 043°12'0 0.4
2016-Nov-28 03:33S 22°53' W 043°12'0 0.0
2016-Nov-28 02:33S 22°53' W 043°12'1 0.7
2016-Nov-28 01:33S 22°53' W 043°12'8 8.0
2016-Nov-28 00:33S 22°60' W 043°07'8 7.9
2016-Nov-27 23:33S 23°07' W 043°04'5 4.8
2016-Nov-27 22:33S 23°03' W 043°06'8 7.9
2016-Nov-27 21:33S 22°55' W 043°09'4 4.0
2016-Nov-27 20:33S 22°52' W 043°12'0 0.0
2016-Nov-27 19:33S 22°52' W 043°12'0 0.0
2016-Nov-27 18:33S 22°52' W 043°12'0 0.2
2016-Nov-27 17:33S 22°52' W 043°12'0 0.5
2016-Nov-27 16:33S 22°53' W 043°13'0 0.0
2016-Nov-27 15:33S 22°53' W 043°13'0 0.0
2016-Nov-27 14:33S 22°53' W 043°13'2 1.5
2016-Nov-27 13:33S 22°53' W 043°11'0 0.0
2016-Nov-27 12:23S 22°53' W 043°11'0 0.0
2016-Nov-27 11:29S 22°53' W 043°11'0 0.0
2016-Nov-27 10:29S 22°53' W 043°11'0 0.0
2016-Nov-27 09:29S 22°53' W 043°11'0 0.0
2016-Nov-27 08:29S 22°53' W 043°11'3 3.6
2016-Nov-27 07:33S 22°55' W 043°09'8 7.6
2016-Nov-27 06:33S 23°03' W 043°06'2 2.3
2016-Nov-27 05:33S 23°05' W 043°05'8 8.3
2016-Nov-27 04:33S 22°57' W 043°08'6 5.7
2016-Nov-27 03:33S 22°53' W 043°13'0 0.0
2016-Nov-27 02:33S 22°53' W 043°13'0 0.0
2016-Nov-27 01:33S 22°53' W 043°13'0 0.0
2016-Nov-27 00:33S 22°53' W 043°13'0 0.0
2016-Nov-26 23:33S 22°53' W 043°13'0 0.0
2016-Nov-26 22:33S 22°53' W 043°12'0 0.0
2016-Nov-26 21:33S 22°53' W 043°12'0 0.0
2016-Nov-26 20:33S 22°53' W 043°12'0 0.0
2016-Nov-26 19:33S 22°53' W 043°13'0 0.0
2016-Nov-26 18:33S 22°53' W 043°13'0 0.0
2016-Nov-26 17:33S 22°53' W 043°13'0 0.2
2016-Nov-26 16:24S 22°53' W 043°13'0 0.3
2016-Nov-26 15:33S 22°53' W 043°13'0 0.2
2016-Nov-26 14:33S 22°53' W 043°13'0 0.1
2016-Nov-26 13:33S 22°53' W 043°13'0 0.0
2016-Nov-26 12:33S 22°53' W 043°13'1 1.4
2016-Nov-26 11:30S 22°53' W 043°11'0 0.0
2016-Nov-26 10:24S 22°53' W 043°11'0 0.0
2016-Nov-26 09:30S 22°53' W 043°11'0 0.0
2016-Nov-26 08:30S 22°53' W 043°11'0 0.0
2016-Nov-26 07:24S 22°53' W 043°11'0 0.0
2016-Nov-26 06:30S 22°53' W 043°11'0 0.0
2016-Nov-26 05:24S 22°53' W 043°11'0 0.0
2016-Nov-26 04:30S 22°53' W 043°11'0 0.0
2016-Nov-26 03:30S 22°53' W 043°11'0 0.0
2016-Nov-26 02:24S 22°53' W 043°11'0 0.0
2016-Nov-26 01:24S 22°53' W 043°11'0 0.0
2016-Nov-26 00:24S 22°53' W 043°11'0 0.0
2016-Nov-25 23:30S 22°53' W 043°11'0 0.0
2016-Nov-25 22:30S 22°53' W 043°11'0 0.0
2016-Nov-25 21:30S 22°53' W 043°11'0 0.0
2016-Nov-25 20:30S 22°53' W 043°11'0 0.0
2016-Nov-25 19:18S 22°53' W 043°11'0 0.0
2016-Nov-25 18:30S 22°53' W 043°11'0 0.0
2016-Nov-25 17:24S 22°53' W 043°11'0 0.0
2016-Nov-25 16:30S 22°53' W 043°11'0 0.0
2016-Nov-25 15:30S 22°53' W 043°11'0 0.0
2016-Nov-25 14:30S 22°53' W 043°11'0 0.0
2016-Nov-25 13:30S 22°53' W 043°11'0 0.0
2016-Nov-25 12:28S 22°53' W 043°11'0 0.0
2016-Nov-25 11:28S 22°53' W 043°11'0 0.0
2016-Nov-25 10:22S 22°53' W 043°11'0 0.0
2016-Nov-25 09:28S 22°53' W 043°11'0 0.0
2016-Nov-25 08:28S 22°53' W 043°11'0 0.0
2016-Nov-25 07:28S 22°53' W 043°11'0 0.0
2016-Nov-25 06:28S 22°53' W 043°11'0 0.0
2016-Nov-25 05:28S 22°53' W 043°11'0 0.0
2016-Nov-25 04:28S 22°53' W 043°11'0 0.0
2016-Nov-25 03:28S 22°53' W 043°11'0 0.1
2016-Nov-25 02:28S 22°53' W 043°11'0 0.0
2016-Nov-25 01:28S 22°53' W 043°11'0 0.0
2016-Nov-25 00:28S 22°53' W 043°11'  

Dump ship's entire track history